Time;durP1;ratioP1;P1;durP2;ratioP2;P2;SDS_P1;SDS_P2;PMS_P1;PMS_P2;Temp;Humidity;BMP_temperature;BMP_pressure;BME280_temperature;BME280_humidity;BME280_pressure;Samples;Min_cycle;Max_cycle;Signal;HPM_P1;HPM_P2
2023/10/22 00:00:46;;;;;;;1371.00;552.17;;;12.10;99.90;;;;;;5136501;27;20085;-87
2023/10/22 00:03:12;;;;;;;1316.47;547.20;;;12.50;99.90;;;;;;5136318;27;20035;-86
2023/10/22 00:05:38;;;;;;;1315.17;542.80;;;12.10;99.90;;;;;;5119103;27;20049;-86
2023/10/22 00:08:04;;;;;;;1365.87;547.57;;;12.00;99.90;;;;;;5155146;27;20031;-86
2023/10/22 00:10:29;;;;;;;1317.97;554.40;;;12.00;99.90;;;;;;5154576;27;20129;-87
2023/10/22 00:12:56;;;;;;;1313.10;553.57;;;12.00;99.90;;;;;;5114972;27;1136816;-86
2023/10/22 00:15:23;;;;;;;1363.03;547.27;;;12.30;99.90;;;;;;5176772;27;20046;-88
2023/10/22 00:17:49;;;;;;;1311.57;556.53;;;12.00;99.90;;;;;;5176704;27;20043;-87
2023/10/22 00:20:15;;;;;;;1315.50;548.00;;;12.10;99.90;;;;;;5145379;27;20030;-85
2023/10/22 00:22:41;;;;;;;1367.37;548.43;;;12.00;99.90;;;;;;5122489;27;20082;-87
2023/10/22 00:25:07;;;;;;;1368.20;555.10;;;12.00;99.90;;;;;;5156919;27;20053;-86
2023/10/22 00:27:33;;;;;;;1318.00;552.53;;;12.00;99.90;;;;;;5157984;27;20053;-87
2023/10/22 00:29:59;;;;;;;1317.73;548.23;;;12.40;99.90;;;;;;5151822;27;20035;-86
2023/10/22 00:32:26;;;;;;;1320.67;544.07;;;11.90;99.90;;;;;;5137043;27;20065;-85
2023/10/22 00:34:51;;;;;;;1374.70;559.03;;;12.00;99.90;;;;;;5155981;27;20047;-86
2023/10/22 00:37:17;;;;;;;1317.17;555.37;;;12.00;99.90;;;;;;5157561;27;20126;-86
2023/10/22 00:39:43;;;;;;;1372.63;544.90;;;12.00;99.90;;;;;;5157351;27;20042;-87
2023/10/22 00:42:10;;;;;;;1321.83;555.67;;;12.00;99.90;;;;;;5157655;27;20078;-86
2023/10/22 00:44:36;;;;;;;1374.83;551.60;;;12.00;99.90;;;;;;5157712;27;20367;-86
2023/10/22 00:47:03;;;;;;;1375.13;550.93;;;12.00;99.90;;;;;;5157474;27;20049;-87
2023/10/22 00:49:29;;;;;;;1319.60;559.40;;;12.00;99.90;;;;;;5137512;27;20042;-86
2023/10/22 00:51:56;;;;;;;1327.67;558.13;;;12.00;99.90;;;;;;5136045;27;20443;-86
2023/10/22 00:54:24;;;;;;;1327.10;554.57;;;12.00;99.90;;;;;;5154070;27;20047;-86
2023/10/22 00:56:51;;;;;;;1326.73;550.40;;;12.00;99.90;;;;;;5175179;27;20054;-86
2023/10/22 00:59:18;;;;;;;1371.43;552.30;;;12.00;99.90;;;;;;5175826;27;20078;-86
2023/10/22 01:01:44;;;;;;;1329.10;554.10;;;12.00;99.90;;;;;;5138211;27;20507;-86
2023/10/22 01:04:10;;;;;;;1326.23;553.43;;;11.90;99.90;;;;;;5154688;27;20078;-87
2023/10/22 01:06:36;;;;;;;1377.17;554.30;;;12.00;99.90;;;;;;5119252;27;20054;-87
2023/10/22 01:09:02;;;;;;;1369.07;550.37;;;12.00;99.90;;;;;;5154914;27;20535;-86
2023/10/22 01:11:28;;;;;;;1374.47;553.23;;;12.00;99.90;;;;;;5136304;27;20042;-86
2023/10/22 01:13:54;;;;;;;1370.20;553.53;;;11.90;99.90;;;;;;5155372;27;20517;-86
2023/10/22 01:16:20;;;;;;;1325.77;558.87;;;11.90;99.90;;;;;;5154604;27;20119;-87
2023/10/22 01:18:45;;;;;;;1332.97;554.60;;;12.00;99.90;;;;;;5135968;27;20046;-86
2023/10/22 01:21:11;;;;;;;1377.87;550.93;;;11.90;99.90;;;;;;5136023;27;20074;-86
2023/10/22 01:23:38;;;;;;;1371.80;546.40;;;11.90;99.90;;;;;;5135988;27;20089;-86
2023/10/22 01:26:07;;;;;;;1327.70;553.53;;;11.90;99.90;;;;;;5118700;27;20125;-86
2023/10/22 01:28:34;;;;;;;1372.67;554.33;;;12.00;99.90;;;;;;5143249;27;20034;-86
2023/10/22 01:31:00;;;;;;;1325.73;550.63;;;12.00;99.90;;;;;;5154549;27;20046;-87
2023/10/22 01:33:26;;;;;;;1379.97;557.97;;;12.10;99.90;;;;;;5138196;27;20035;-87
2023/10/22 01:35:52;;;;;;;1374.07;553.33;;;12.00;99.90;;;;;;5135547;27;20038;-87
2023/10/22 01:38:17;;;;;;;1370.07;551.73;;;12.00;99.90;;;;;;5154365;27;20039;-87
2023/10/22 01:40:43;;;;;;;1368.13;553.40;;;12.40;99.90;;;;;;5132447;27;20069;-86
2023/10/22 01:43:09;;;;;;;1372.87;554.80;;;12.10;99.90;;;;;;5133644;27;20506;-87
2023/10/22 01:45:35;;;;;;;1324.13;562.30;;;12.20;99.90;;;;;;5133517;27;20044;-87
2023/10/22 01:48:00;;;;;;;1371.80;553.70;;;12.10;99.90;;;;;;5133432;27;20117;-87
2023/10/22 01:50:26;;;;;;;1332.50;561.73;;;12.10;99.90;;;;;;5133675;28;20355;-87
2023/10/22 01:52:52;;;;;;;1372.13;552.30;;;12.10;99.90;;;;;;5099020;27;20039;-87
2023/10/22 01:55:18;;;;;;;1374.57;562.70;;;12.10;99.90;;;;;;5135816;27;20042;-87
2023/10/22 01:57:44;;;;;;;1336.03;570.20;;;12.10;99.90;;;;;;5154206;27;20047;-87
2023/10/22 02:00:11;;;;;;;1379.97;558.87;;;12.10;99.90;;;;;;5153970;27;20042;-87
2023/10/22 02:02:38;;;;;;;1378.80;558.90;;;12.10;99.90;;;;;;5119061;27;20058;-87
2023/10/22 02:05:04;;;;;;;1335.67;555.70;;;12.10;99.90;;;;;;5154165;27;20402;-87
2023/10/22 02:07:30;;;;;;;1373.93;556.13;;;12.10;99.90;;;;;;5153483;27;20035;-87
2023/10/22 02:09:56;;;;;;;1341.03;574.90;;;12.10;99.90;;;;;;5154183;27;20150;-87
2023/10/22 02:12:29;;;;;;;1372.03;556.93;;;12.10;99.90;;;;;;5153999;27;20096;-86
2023/10/22 02:14:55;;;;;;;1328.07;562.37;;;12.60;99.90;;;;;;5135295;27;20050;-87
2023/10/22 02:17:21;;;;;;;1369.83;557.87;;;12.00;99.90;;;;;;5153991;27;20117;-86
2023/10/22 02:19:47;;;;;;;1366.40;559.97;;;12.20;99.90;;;;;;5154885;27;20049;-87
2023/10/22 02:22:13;;;;;;;1368.40;558.40;;;12.30;99.90;;;;;;5135542;27;20038;-86
2023/10/22 02:24:42;;;;;;;1370.03;564.20;;;12.10;99.90;;;;;;5118356;27;20039;-87
2023/10/22 02:27:08;;;;;;;1327.10;568.10;;;11.90;99.90;;;;;;5135473;27;20050;-87
2023/10/22 02:29:35;;;;;;;1369.57;558.17;;;11.80;99.90;;;;;;5118175;27;20039;-87
2023/10/22 02:32:00;;;;;;;1368.27;557.20;;;11.80;99.90;;;;;;5135113;27;20103;-86
2023/10/22 02:34:26;;;;;;;1368.33;560.13;;;11.80;99.90;;;;;;5153681;27;20114;-87
2023/10/22 02:36:52;;;;;;;1326.60;564.00;;;11.80;99.90;;;;;;5170529;27;20122;-86
2023/10/22 02:39:20;;;;;;;1330.63;563.27;;;11.80;99.90;;;;;;5174845;27;20049;-86
2023/10/22 02:41:46;;;;;;;1333.87;566.67;;;11.80;99.90;;;;;;5155928;27;20042;-87
2023/10/22 02:44:12;;;;;;;1378.30;557.93;;;11.80;99.90;;;;;;5155794;27;20106;-86
2023/10/22 02:46:37;;;;;;;1335.93;567.63;;;11.90;99.90;;;;;;5174766;27;20446;-87
2023/10/22 02:49:03;;;;;;;1379.13;562.83;;;11.70;99.90;;;;;;5176067;27;20030;-86
2023/10/22 02:51:29;;;;;;;1384.43;563.50;;;11.70;99.90;;;;;;5162255;27;20106;-86
2023/10/22 02:53:55;;;;;;;1391.47;555.07;;;11.70;99.90;;;;;;5138254;27;20042;-86
2023/10/22 02:56:21;;;;;;;1395.70;559.00;;;11.60;99.90;;;;;;5138937;27;20376;-87
2023/10/22 02:58:46;;;;;;;1390.57;553.57;;;11.90;99.90;;;;;;5138765;27;20043;-87
2023/10/22 03:01:12;;;;;;;1381.33;549.60;;;11.60;99.90;;;;;;5156769;27;20034;-87
2023/10/22 03:03:39;;;;;;;1382.90;558.70;;;11.70;99.90;;;;;;5157674;27;20506;-86
2023/10/22 03:06:07;;;;;;;1336.60;562.83;;;11.70;99.90;;;;;;5121018;27;20046;-86
2023/10/22 03:08:34;;;;;;;1384.27;557.57;;;11.60;99.90;;;;;;5170482;27;20039;-86
2023/10/22 03:11:00;;;;;;;1393.90;565.03;;;11.60;99.90;;;;;;5142254;27;20046;-86
2023/10/22 03:13:26;;;;;;;1342.60;573.90;;;11.50;99.90;;;;;;5177703;27;20046;-85
2023/10/22 03:15:51;;;;;;;1341.80;573.93;;;11.50;99.90;;;;;;5140709;27;20043;-86
2023/10/22 03:18:17;;;;;;;1344.63;569.57;;;11.50;99.90;;;;;;5154111;27;20026;-86
2023/10/22 03:20:43;;;;;;;1343.83;571.67;;;11.50;99.90;;;;;;5156880;27;20089;-86
2023/10/22 03:23:09;;;;;;;1390.20;561.07;;;12.10;99.90;;;;;;5149973;27;20030;-87
2023/10/22 03:25:37;;;;;;;1341.90;569.40;;;11.90;99.90;;;;;;5141669;27;20090;-87
2023/10/22 03:28:03;;;;;;;1342.70;570.53;;;11.50;99.90;;;;;;5158936;27;20498;-86
2023/10/22 03:30:28;;;;;;;1384.13;558.33;;;11.50;99.90;;;;;;5158926;27;20034;-87
2023/10/22 03:32:55;;;;;;;1383.67;559.93;;;11.50;99.90;;;;;;5158927;27;20040;-85
2023/10/22 03:35:22;;;;;;;1385.07;561.30;;;11.90;99.90;;;;;;5143047;27;20039;-87
2023/10/22 03:37:47;;;;;;;1342.93;573.03;;;11.90;99.90;;;;;;5147313;27;20034;-86
2023/10/22 03:40:13;;;;;;;1342.90;573.03;;;11.50;99.90;;;;;;5156643;27;20141;-85
2023/10/22 03:42:39;;;;;;;1385.63;558.87;;;11.70;99.90;;;;;;5156529;27;20103;-86
2023/10/22 03:45:06;;;;;;;1342.13;574.97;;;11.60;99.90;;;;;;5138072;27;20038;-86
2023/10/22 03:47:32;;;;;;;1380.27;557.23;;;11.60;99.90;;;;;;5138242;27;20123;-85
2023/10/22 03:49:58;;;;;;;1342.60;569.10;;;11.70;99.90;;;;;;5156153;27;20200;-85
2023/10/22 03:52:23;;;;;;;1347.47;582.93;;;11.50;99.90;;;;;;5137833;27;20516;-86
2023/10/22 03:54:49;;;;;;;1388.43;565.77;;;11.80;99.90;;;;;;5156276;27;20043;-86
2023/10/22 03:57:15;;;;;;;1344.63;573.73;;;11.50;99.90;;;;;;5137765;27;20398;-85
2023/10/22 03:59:41;;;;;;;1358.40;578.87;;;11.60;99.90;;;;;;5155499;27;20117;-86
2023/10/22 04:02:06;;;;;;;1364.53;574.77;;;11.70;99.90;;;;;;5137397;27;20035;-85
2023/10/22 04:04:32;;;;;;;1368.70;572.47;;;11.80;99.90;;;;;;5156024;27;20478;-86
2023/10/22 04:06:58;;;;;;;1365.70;570.20;;;11.60;99.90;;;;;;5137349;27;20053;-86
2023/10/22 04:09:23;;;;;;;1414.07;554.73;;;11.70;99.90;;;;;;5156284;27;20054;-86
2023/10/22 04:11:49;;;;;;;1370.37;572.00;;;11.60;99.90;;;;;;5155934;27;20324;-86
2023/10/22 04:14:16;;;;;;;1387.00;561.23;;;11.60;99.90;;;;;;5155538;27;20039;-86
2023/10/22 04:16:41;;;;;;;1366.70;577.97;;;11.60;99.90;;;;;;5137327;27;20042;-87
2023/10/22 04:19:07;;;;;;;1365.87;567.07;;;12.10;99.90;;;;;;5155856;27;20046;-86
2023/10/22 04:21:33;;;;;;;1373.40;579.20;;;11.70;99.90;;;;;;5142220;27;20545;-86
2023/10/22 04:23:59;;;;;;;1377.13;584.20;;;12.10;99.90;;;;;;5157804;27;20125;-86
2023/10/22 04:26:24;;;;;;;1413.50;560.70;;;11.80;99.90;;;;;;5136882;27;20042;-86
2023/10/22 04:28:50;;;;;;;1409.40;550.60;;;11.70;99.90;;;;;;5155525;27;20042;-86
2023/10/22 04:31:16;;;;;;;1412.30;560.73;;;11.70;99.90;;;;;;5155570;27;20098;-86
2023/10/22 04:33:41;;;;;;;1370.20;576.90;;;11.70;99.90;;;;;;5155228;27;20088;-86
2023/10/22 04:36:18;;;;;;;1413.40;559.67;;;11.60;99.90;;;;;;5155577;27;20338;-86
2023/10/22 04:38:44;;;;;;;1409.10;560.60;;;11.70;99.90;;;;;;5136609;27;20050;-86
2023/10/22 04:41:11;;;;;;;1410.93;564.43;;;11.70;99.90;;;;;;5160405;27;20395;-87
2023/10/22 04:43:36;;;;;;;1402.43;557.13;;;12.20;99.90;;;;;;5140518;27;20034;-86
2023/10/22 04:46:02;;;;;;;1371.80;587.53;;;11.70;99.90;;;;;;5157469;27;20590;-85
2023/10/22 04:48:28;;;;;;;1368.97;582.97;;;11.80;99.90;;;;;;5157596;27;20050;-86
2023/10/22 04:50:55;;;;;;;1372.13;580.93;;;11.70;99.90;;;;;;5176025;27;20409;-86
2023/10/22 04:53:21;;;;;;;1406.90;561.70;;;11.90;99.90;;;;;;5153324;27;20042;-85
2023/10/22 04:55:58;;;;;;;1408.30;559.60;;;11.70;99.90;;;;;;5139767;27;20125;-86
2023/10/22 04:58:23;;;;;;;1410.30;559.83;;;11.70;99.90;;;;;;5157336;27;20129;-86
2023/10/22 05:00:50;;;;;;;1372.33;578.17;;;12.20;99.90;;;;;;5175923;27;20078;-85
2023/10/22 05:03:16;;;;;;;1371.07;580.03;;;11.90;99.90;;;;;;5140026;27;20026;-86
2023/10/22 05:05:41;;;;;;;1375.37;577.63;;;11.70;99.90;;;;;;5125622;27;20451;-85
2023/10/22 05:08:07;;;;;;;1379.23;583.53;;;11.70;99.90;;;;;;5154003;27;20474;-85
2023/10/22 05:10:40;;;;;;;1385.87;590.23;;;11.70;99.90;;;;;;5136232;27;20079;-86
2023/10/22 05:13:08;;;;;;;1387.23;596.60;;;11.70;99.90;;;;;;5128439;27;20080;-85
2023/10/22 05:15:33;;;;;;;1390.00;545.03;;;11.70;99.90;;;;;;5119170;27;20038;-86
2023/10/22 05:17:59;;;;;;;1384.53;543.57;;;11.90;99.90;;;;;;5154718;27;20050;-86
2023/10/22 05:20:28;;;;;;;1384.33;591.63;;;11.70;99.90;;;;;;5136101;27;20050;-86
2023/10/22 05:22:54;;;;;;;1390.13;591.30;;;11.70;99.90;;;;;;5135889;27;20050;-86
2023/10/22 05:25:20;;;;;;;1402.00;546.87;;;11.70;99.90;;;;;;5154609;27;20407;-85
2023/10/22 05:27:46;;;;;;;1383.93;593.47;;;11.70;99.90;;;;;;5135171;27;20441;-86
2023/10/22 05:30:13;;;;;;;1380.47;588.53;;;11.80;99.90;;;;;;5115502;27;20503;-86
2023/10/22 05:32:39;;;;;;;1379.00;584.37;;;11.80;99.90;;;;;;5133682;27;20079;-86
2023/10/22 05:35:06;;;;;;;1403.70;555.47;;;12.10;99.90;;;;;;5115300;28;20074;-88
2023/10/22 05:37:32;;;;;;;1397.30;549.67;;;11.80;99.90;;;;;;5115291;27;20099;-86
2023/10/22 05:39:58;;;;;;;1400.07;553.27;;;11.90;99.90;;;;;;5115231;27;20035;-86
2023/10/22 05:42:24;;;;;;;1380.20;587.50;;;11.90;99.90;;;;;;5115136;28;20047;-86
2023/10/22 05:44:50;;;;;;;1376.13;580.87;;;11.90;99.90;;;;;;5133587;27;20051;-86
2023/10/22 05:47:16;;;;;;;1399.87;553.80;;;12.70;99.90;;;;;;5115186;27;20050;-86
2023/10/22 05:49:41;;;;;;;1398.90;559.17;;;12.40;99.90;;;;;;5115294;28;20088;-87
2023/10/22 05:52:07;;;;;;;1397.07;556.70;;;11.90;99.90;;;;;;5115335;28;20055;-86
2023/10/22 05:54:33;;;;;;;1376.33;590.30;;;12.00;99.90;;;;;;5111978;28;20043;-86
2023/10/22 05:56:59;;;;;;;1388.77;545.33;;;11.90;99.90;;;;;;5094835;28;20322;-85
2023/10/22 05:59:25;;;;;;;1379.80;587.43;;;12.00;99.90;;;;;;5093943;27;20043;-86
2023/10/22 06:01:51;;;;;;;1385.50;550.33;;;12.40;99.90;;;;;;5115148;28;20100;-86
2023/10/22 06:04:17;;;;;;;1392.53;553.60;;;12.00;99.90;;;;;;5133557;28;20044;-85
2023/10/22 06:06:42;;;;;;;1372.80;548.87;;;12.20;99.90;;;;;;5114828;28;20368;-85
2023/10/22 06:09:10;;;;;;;1361.90;538.20;;;12.00;99.90;;;;;;5115168;28;20049;-85
2023/10/22 06:11:36;;;;;;;1379.33;538.83;;;12.10;99.90;;;;;;5133489;28;20045;-86
2023/10/22 06:14:03;;;;;;;1386.73;577.13;;;12.00;99.90;;;;;;5129954;27;20114;-86
2023/10/22 06:16:31;;;;;;;1389.90;596.90;;;12.20;99.90;;;;;;5133594;28;20043;-86
2023/10/22 06:18:57;;;;;;;1391.77;590.87;;;12.50;99.90;;;;;;5115057;28;20039;-85
2023/10/22 06:21:22;;;;;;;1390.77;594.93;;;12.10;99.90;;;;;;5140346;27;20113;-86
2023/10/22 06:23:52;;;;;;;1389.13;593.00;;;12.30;99.90;;;;;;5155440;27;20038;-85
2023/10/22 06:26:17;;;;;;;1322.57;530.47;;;12.20;99.90;;;;;;5158157;27;20114;-85
2023/10/22 06:28:43;;;;;;;1382.13;602.43;;;12.20;99.90;;;;;;5139246;27;20612;-85
2023/10/22 06:31:13;;;;;;;1315.53;572.50;;;12.20;99.90;;;;;;5156776;27;20098;-85
2023/10/22 06:33:40;;;;;;;1308.10;582.40;;;12.20;99.90;;;;;;5160167;27;20125;-85
2023/10/22 06:36:22;;;;;;;1326.83;641.07;;;12.20;99.90;;;;;;5148859;27;20043;-85
2023/10/22 06:38:49;;;;;;;1307.03;563.53;;;12.10;99.90;;;;;;5139373;27;20042;-85
2023/10/22 06:41:22;;;;;;;1314.47;556.87;;;12.00;99.90;;;;;;5138179;27;20043;-84
2023/10/22 06:43:48;;;;;;;1306.90;547.30;;;11.90;99.90;;;;;;5139601;27;20047;-84
2023/10/22 06:46:14;;;;;;;1358.90;604.43;;;11.90;99.90;;;;;;5157048;27;20175;-86
2023/10/22 06:48:41;;;;;;;1275.40;519.00;;;12.00;99.90;;;;;;5157155;27;20042;-89
2023/10/22 06:51:12;;;;;;;1281.73;525.53;;;11.80;99.90;;;;;;5157676;27;20498;-86
2023/10/22 06:53:38;;;;;;;1280.27;515.93;;;12.30;99.90;;;;;;5178459;27;20386;-86
2023/10/22 06:56:05;;;;;;;1361.97;601.97;;;11.80;99.90;;;;;;5124945;27;20039;-86
2023/10/22 06:58:32;;;;;;;1267.83;529.13;;;11.70;99.90;;;;;;5157600;27;20109;-84
2023/10/22 07:01:09;;;;;;;1259.37;524.93;;;11.70;99.90;;;;;;5157495;27;20152;-85
2023/10/22 07:03:42;;;;;;;1244.87;519.83;;;11.80;99.90;;;;;;5158447;27;20047;-83
2023/10/22 07:06:08;;;;;;;1330.57;608.67;;;11.70;99.90;;;;;;5158008;27;20046;-86
2023/10/22 07:08:34;;;;;;;1251.77;532.40;;;11.70;99.90;;;;;;5172020;27;20035;-84
2023/10/22 07:10:59;;;;;;;1276.97;557.33;;;11.60;99.90;;;;;;5138827;27;20092;-85
2023/10/22 07:13:25;;;;;;;1274.40;557.60;;;11.70;99.90;;;;;;5157291;27;20046;-86
2023/10/22 07:15:52;;;;;;;1319.03;620.87;;;11.70;99.90;;;;;;5138436;27;20561;-84
2023/10/22 07:18:19;;;;;;;1326.23;635.33;;;12.00;99.90;;;;;;5138787;27;20391;-85
2023/10/22 07:20:44;;;;;;;1215.80;522.40;;;11.50;99.90;;;;;;5138572;27;20035;-86
2023/10/22 07:23:10;;;;;;;1291.03;613.33;;;11.50;99.90;;;;;;5138644;27;20405;-89
2023/10/22 07:25:36;;;;;;;1171.83;496.20;;;11.60;99.90;;;;;;5138694;27;20099;-84
2023/10/22 07:28:05;;;;;;;1212.57;572.53;;;11.60;99.90;;;;;;5138436;27;20521;-85
2023/10/22 07:30:32;;;;;;;1245.47;584.23;;;11.90;99.90;;;;;;5156856;27;20054;-84
2023/10/22 07:32:58;;;;;;;1137.67;480.57;;;11.60;99.90;;;;;;5138436;27;20483;-85
2023/10/22 07:35:24;;;;;;;1255.50;571.07;;;11.90;99.90;;;;;;5155864;27;20475;-84
2023/10/22 07:37:50;;;;;;;1101.67;472.70;;;12.00;99.90;;;;;;5157036;27;20083;-85
2023/10/22 07:40:19;;;;;;;1225.33;580.80;;;11.60;99.90;;;;;;5157022;27;20092;-86
2023/10/22 07:42:45;;;;;;;1088.57;472.43;;;12.00;99.90;;;;;;5156978;27;20039;-88
2023/10/22 07:45:11;;;;;;;1075.93;465.63;;;11.80;99.90;;;;;;5138286;27;20102;-84
2023/10/22 07:47:37;;;;;;;1238.10;584.03;;;11.60;99.90;;;;;;5156651;27;20035;-86
2023/10/22 07:50:04;;;;;;;1225.73;571.77;;;11.70;99.90;;;;;;5156724;27;20035;-86
2023/10/22 07:52:35;;;;;;;1161.20;482.57;;;11.70;99.90;;;;;;5156850;27;20043;-87
2023/10/22 07:55:01;;;;;;;1183.50;497.43;;;11.70;99.90;;;;;;5156497;27;20474;-86
2023/10/22 07:57:27;;;;;;;1258.90;576.13;;;11.70;99.90;;;;;;5138014;27;20038;-89
2023/10/22 07:59:55;;;;;;;1114.47;480.50;;;11.70;99.90;;;;;;5156531;27;20091;-87
2023/10/22 08:02:21;;;;;;;1060.63;477.83;;;11.70;99.90;;;;;;5137875;27;20031;-86
2023/10/22 08:04:46;;;;;;;1173.57;562.37;;;11.80;99.90;;;;;;5134185;27;20092;-90
2023/10/22 08:07:12;;;;;;;1198.67;583.67;;;12.00;99.90;;;;;;5134293;27;20403;-85
2023/10/22 08:09:38;;;;;;;1135.00;587.27;;;11.80;99.90;;;;;;5144854;27;20129;-87
2023/10/22 08:12:04;;;;;;;1057.57;472.33;;;11.90;99.90;;;;;;5137926;27;20363;-86
2023/10/22 08:14:29;;;;;;;975.33;466.80;;;11.90;99.90;;;;;;5137615;27;20062;-88
2023/10/22 08:16:55;;;;;;;950.70;461.67;;;12.00;99.90;;;;;;5156398;27;20134;-84
2023/10/22 08:19:21;;;;;;;1052.67;604.63;;;12.00;99.90;;;;;;5137545;27;20082;-85
2023/10/22 08:21:46;;;;;;;1034.80;593.08;;;11.90;99.90;;;;;;5120375;27;20050;-85
2023/10/22 08:24:12;;;;;;;1039.63;594.50;;;11.80;99.90;;;;;;5138308;27;20035;-86
2023/10/22 08:26:38;;;;;;;928.72;456.88;;;11.90;99.90;;;;;;5138759;27;20070;-86
2023/10/22 08:29:04;;;;;;;931.63;453.90;;;11.80;99.90;;;;;;5138750;27;20049;-85
2023/10/22 08:31:30;;;;;;;986.45;471.27;;;11.80;99.90;;;;;;5157061;27;20054;-85
2023/10/22 08:33:55;;;;;;;980.10;468.35;;;11.80;99.90;;;;;;5139543;27;20047;-86
2023/10/22 08:36:22;;;;;;;943.72;468.90;;;11.90;99.90;;;;;;5157335;27;20042;-88
2023/10/22 08:38:48;;;;;;;1046.50;597.78;;;11.80;99.90;;;;;;5137742;27;20122;-86
2023/10/22 08:41:21;;;;;;;1045.25;605.15;;;12.00;99.90;;;;;;5156295;27;20508;-89
2023/10/22 08:43:48;;;;;;;1036.72;592.88;;;11.90;99.90;;;;;;5156134;27;20039;-90
2023/10/22 08:46:15;;;;;;;1108.90;596.93;;;12.00;99.90;;;;;;5154581;27;20607;-90
2023/10/22 08:48:40;;;;;;;972.13;467.83;;;11.90;99.90;;;;;;5137234;27;20066;-86
2023/10/22 08:51:07;;;;;;;1063.10;597.53;;;12.00;99.90;;;;;;5137313;27;20042;-92
2023/10/22 08:53:33;;;;;;;1043.32;596.50;;;12.10;99.90;;;;;;5120148;27;20035;-86
2023/10/22 08:56:01;;;;;;;1057.40;600.47;;;12.10;99.90;;;;;;5137457;27;20402;-89
2023/10/22 08:58:27;;;;;;;920.30;463.33;;;12.20;99.90;;;;;;5137472;27;20398;-85
2023/10/22 09:00:53;;;;;;;1037.57;611.42;;;12.30;99.90;;;;;;5155148;27;20495;-92
2023/10/22 09:03:20;;;;;;;1019.83;590.95;;;12.30;99.90;;;;;;5155373;27;20031;-89
2023/10/22 09:05:47;;;;;;;1022.33;610.28;;;12.70;99.90;;;;;;5136793;27;20121;-90
2023/10/22 09:08:14;;;;;;;1028.97;615.97;;;12.40;99.90;;;;;;5136836;27;20038;-87
2023/10/22 09:10:40;;;;;;;1016.17;597.08;;;12.40;99.90;;;;;;5119644;27;20042;-88
2023/10/22 09:13:13;;;;;;;1027.47;612.83;;;12.50;99.90;;;;;;5155392;27;20070;-88
2023/10/22 09:15:40;;;;;;;1036.85;611.22;;;13.00;99.90;;;;;;5137079;27;20138;-86
2023/10/22 09:18:06;;;;;;;1039.15;611.53;;;12.50;99.90;;;;;;5155597;27;20083;-90
2023/10/22 09:20:34;;;;;;;921.85;465.75;;;12.50;99.90;;;;;;5136453;27;20494;-87
2023/10/22 09:23:18;;;;;;;915.78;469.25;;;12.60;99.90;;;;;;5137154;27;20097;-88
2023/10/22 09:26:07;;;;;;;942.08;470.58;;;12.60;99.90;;;;;;5154711;27;20125;-85
2023/10/22 09:28:33;;;;;;;948.20;464.27;;;12.60;99.90;;;;;;5154736;27;20062;-85
2023/10/22 09:31:00;;;;;;;1071.28;624.35;;;12.70;99.90;;;;;;5118982;27;20035;-87
2023/10/22 09:33:35;;;;;;;1063.30;606.07;;;12.70;99.90;;;;;;5154816;27;20125;-84
2023/10/22 09:36:03;;;;;;;1113.55;601.55;;;12.90;99.90;;;;;;5136231;27;20431;-84
2023/10/22 09:38:48;;;;;;;1094.47;597.27;;;12.70;99.90;;;;;;5119446;27;20046;-85
2023/10/22 09:41:29;;;;;;;1011.63;479.60;;;12.70;99.90;;;;;;5154650;27;20423;-85
2023/10/22 09:43:59;;;;;;;1120.33;609.97;;;12.90;99.90;;;;;;5136198;27;20113;-89
2023/10/22 09:46:32;;;;;;;1045.15;490.35;;;12.80;99.90;;;;;;5136380;27;20039;-90
2023/10/22 09:48:59;;;;;;;1158.63;607.63;;;12.80;99.90;;;;;;5136499;27;20046;-90
2023/10/22 09:51:35;;;;;;;1146.80;590.63;;;12.80;99.90;;;;;;5136447;27;20039;-91
2023/10/22 09:54:05;;;;;;;1161.80;610.57;;;12.90;99.90;;;;;;5136047;27;20491;-89
2023/10/22 09:56:43;;;;;;;1024.18;487.33;;;13.00;99.90;;;;;;5136487;27;20062;-88
2023/10/22 09:59:11;;;;;;;1147.40;614.53;;;13.00;99.90;;;;;;5158802;27;20045;-86
2023/10/22 10:01:39;;;;;;;1054.65;496.92;;;13.10;99.90;;;;;;5159048;27;20077;-90
2023/10/22 10:04:05;;;;;;;1177.50;626.50;;;13.30;99.90;;;;;;5140716;27;20463;-87
2023/10/22 10:06:33;;;;;;;1157.50;620.07;;;13.40;99.90;;;;;;5158720;27;20095;-91
2023/10/22 10:09:02;;;;;;;1065.43;498.07;;;13.50;99.90;;;;;;5140506;27;20038;-89
2023/10/22 10:11:30;;;;;;;930.92;480.73;;;13.50;99.90;;;;;;5158829;27;20086;-90
2023/10/22 10:13:55;;;;;;;1096.88;637.70;;;13.60;99.90;;;;;;5130919;27;20047;-88
2023/10/22 10:16:25;;;;;;;1138.60;631.20;;;13.60;99.90;;;;;;5121008;27;20066;-84
2023/10/22 10:19:01;;;;;;;964.17;487.00;;;13.60;99.90;;;;;;5140619;27;20042;-86
2023/10/22 10:21:45;;;;;;;;;;;13.60;99.90;;;;;;5105154;27;20043;-87
2023/10/22 10:24:14;;;;;;;1025.70;624.75;;;13.60;99.90;;;;;;5125866;27;20005;-87
2023/10/22 10:26:40;;;;;;;970.97;487.20;;;13.70;99.90;;;;;;5150564;27;20051;-86
2023/10/22 10:29:06;;;;;;;1028.00;636.85;;;13.70;99.90;;;;;;5118723;27;20047;-87
2023/10/22 10:31:32;;;;;;;966.47;634.10;;;13.60;99.90;;;;;;5118476;27;20444;-86
2023/10/22 10:34:02;;;;;;;1007.63;655.17;;;13.60;99.90;;;;;;5115470;27;20048;-88
2023/10/22 10:36:29;;;;;;;1010.08;495.67;;;13.60;99.90;;;;;;5117730;27;20039;-86
2023/10/22 10:39:33;;;;;;;1012.42;490.13;;;13.70;99.90;;;;;;5101668;27;20391;-85
2023/10/22 10:41:59;;;;;;;1131.90;629.90;;;13.80;99.90;;;;;;5136811;27;20051;-86
2023/10/22 10:44:28;;;;;;;1121.83;636.47;;;14.00;99.90;;;;;;5101620;27;20507;-86
2023/10/22 10:46:53;;;;;;;1009.85;508.95;;;14.10;99.90;;;;;;5114857;27;20049;-85
2023/10/22 10:49:59;;;;;;;1098.10;647.78;;;14.20;99.90;;;;;;5136480;27;20055;-86
2023/10/22 10:52:25;;;;;;;990.38;507.58;;;14.30;99.90;;;;;;5117561;27;20055;-86
2023/10/22 10:55:15;;;;;;;1083.97;637.85;;;14.50;99.90;;;;;;5137625;27;20054;-86
2023/10/22 10:57:48;;;;;;;1030.25;649.63;;;14.70;99.90;;;;;;5101386;27;20044;-86
2023/10/22 11:00:20;;;;;;;832.03;476.35;;;14.80;99.90;;;;;;5136203;27;20043;-88
2023/10/22 11:02:49;;;;;;;898.05;497.08;;;14.90;99.90;;;;;;5117853;27;20488;-85
2023/10/22 11:05:18;;;;;;;1049.90;657.72;;;15.00;99.90;;;;;;5124994;27;20035;-86
2023/10/22 11:07:44;;;;;;;1116.70;664.15;;;14.90;99.90;;;;;;5136351;27;20035;-88
2023/10/22 11:10:17;;;;;;;1159.88;673.50;;;14.90;99.90;;;;;;5135410;27;20038;-85
2023/10/22 11:12:44;;;;;;;1028.05;529.25;;;15.00;99.90;;;;;;5117774;27;20038;-85
2023/10/22 11:15:12;;;;;;;966.72;512.63;;;15.10;99.90;;;;;;5138053;27;20083;-86
2023/10/22 11:17:40;;;;;;;1092.47;667.85;;;15.10;99.90;;;;;;5157078;27;20047;-86
2023/10/22 11:20:07;;;;;;;1088.68;545.22;;;15.30;99.90;;;;;;5136207;27;20051;-87
2023/10/22 11:22:35;;;;;;;979.55;506.65;;;15.30;99.90;;;;;;5117507;27;20108;-86
2023/10/22 11:25:05;;;;;;;1151.22;668.55;;;15.20;99.90;;;;;;5117473;27;20085;-86
2023/10/22 11:27:31;;;;;;;1024.50;519.72;;;15.20;99.90;;;;;;5129594;27;20122;-87
2023/10/22 11:30:00;;;;;;;1046.22;544.92;;;15.10;99.90;;;;;;5111218;27;20394;-85
2023/10/22 11:32:26;;;;;;;1215.43;668.70;;;15.10;99.90;;;;;;5138226;27;20514;-86
2023/10/22 11:35:02;;;;;;;1106.55;538.15;;;15.00;99.90;;;;;;5120493;27;20039;-87
2023/10/22 11:37:41;;;;;;;1054.53;531.33;;;15.10;99.90;;;;;;5138084;27;20493;-86
2023/10/22 11:40:29;;;;;;;1199.38;679.63;;;15.20;99.90;;;;;;5156593;27;20441;-86
2023/10/22 11:43:04;;;;;;;1254.55;670.40;;;15.20;99.90;;;;;;5156573;27;20034;-86
2023/10/22 11:45:37;;;;;;;1073.32;545.47;;;15.10;99.90;;;;;;5154574;27;20098;-85
2023/10/22 11:48:16;;;;;;;1242.30;672.72;;;15.00;99.90;;;;;;5177238;27;20084;-85
2023/10/22 11:50:46;;;;;;;1269.70;678.93;;;15.10;99.90;;;;;;5148824;27;20070;-86
2023/10/22 11:53:12;;;;;;;1133.20;562.25;;;15.20;99.90;;;;;;5140624;27;20034;-86
2023/10/22 11:55:38;;;;;;;1277.10;680.30;;;15.30;99.90;;;;;;5126900;27;20042;-86
2023/10/22 11:58:04;;;;;;;1325.13;679.63;;;15.30;99.90;;;;;;5155041;27;20043;-85
2023/10/22 12:00:30;;;;;;;1351.40;689.10;;;15.40;99.90;;;;;;5137547;27;20051;-85
2023/10/22 12:02:56;;;;;;;1304.27;585.63;;;15.50;99.90;;;;;;5135290;27;20408;-85